createdAt,value
2018-09-04T00:01:26.789Z,96926.86
2018-09-04T00:03:55.127Z,96927.28
2018-09-04T00:06:23.475Z,96920.67
2018-09-04T00:08:51.799Z,96924.60
2018-09-04T00:11:20.151Z,96919.15
2018-09-04T00:14:03.164Z,96919.31
2018-09-04T00:16:31.516Z,96914.47
2018-09-04T00:18:59.836Z,96911.58
2018-09-04T00:21:28.176Z,96909.73
2018-09-04T00:23:56.492Z,96908.05
2018-09-04T00:26:24.879Z,96910.60
2018-09-04T00:28:53.203Z,96907.76
2018-09-04T00:31:21.557Z,96906.08
2018-09-04T00:33:49.908Z,96903.91
2018-09-04T00:36:18.240Z,96901.72
2018-09-04T00:38:46.620Z,96902.53
2018-09-04T00:41:14.976Z,96899.91
2018-09-04T00:43:43.748Z,96900.09
2018-09-04T00:46:12.097Z,96902.52
2018-09-04T00:48:40.448Z,96895.30
2018-09-04T00:51:08.832Z,96902.72
2018-09-04T00:53:37.424Z,96902.34
2018-09-04T00:56:05.786Z,96908.72
2018-09-04T00:58:34.144Z,96904.16
2018-09-04T01:01:02.504Z,96905.09
2018-09-04T01:03:30.824Z,96914.00
2018-09-04T01:05:59.203Z,96910.02
2018-09-04T01:08:27.535Z,96910.31
2018-09-04T01:10:56.471Z,96910.51
2018-09-04T01:13:24.807Z,96908.66
2018-09-04T01:15:53.181Z,96913.94
2018-09-04T01:18:21.813Z,96924.03
2018-09-04T01:20:50.168Z,96916.11
2018-09-04T01:23:18.484Z,96917.20
2018-09-04T01:25:46.828Z,96916.53
2018-09-04T01:28:15.160Z,96917.34
2018-09-04T01:30:43.513Z,96914.86
2018-09-04T01:33:11.851Z,96911.60
2018-09-04T01:35:40.275Z,96917.28
2018-09-04T01:38:08.597Z,96915.72
2018-09-04T01:40:36.927Z,96917.94
2018-09-04T01:43:05.907Z,96919.50
2018-09-04T01:45:35.064Z,96915.98
2018-09-04T01:48:03.431Z,96915.30
2018-09-04T01:50:31.757Z,96923.23
2018-09-04T01:53:00.108Z,96918.81
2018-09-04T01:55:28.451Z,96916.71
2018-09-04T01:57:56.820Z,96914.23
2018-09-04T02:00:25.132Z,96911.14
2018-09-04T02:02:53.990Z,96916.63
2018-09-04T02:05:23.328Z,96909.67
2018-09-04T02:07:51.789Z,96913.11
2018-09-04T02:10:20.140Z,96910.30
2018-09-04T02:12:48.496Z,96914.42
2018-09-04T02:15:17.243Z,96919.23
2018-09-04T02:17:45.589Z,96916.80
2018-09-04T02:20:13.940Z,96915.27
2018-09-04T02:22:42.359Z,96917.89
2018-09-04T02:25:10.699Z,96911.20
2018-09-04T02:27:39.276Z,96908.58
2018-09-04T02:30:07.628Z,96912.16
2018-09-04T02:32:35.989Z,96905.69
2018-09-04T02:35:04.588Z,96907.71
2018-09-04T02:37:32.940Z,96909.59
2018-09-04T02:40:01.277Z,96917.72
2018-09-04T02:42:29.644Z,96914.00
2018-09-04T02:44:57.956Z,96916.80
2018-09-04T02:47:26.318Z,96913.53
2018-09-04T02:49:54.653Z,96908.72
2018-09-04T02:52:23.015Z,96901.02
2018-09-04T02:54:51.351Z,96903.39
2018-09-04T02:57:19.696Z,96905.64
2018-09-04T02:59:48.549Z,96902.17
2018-09-04T03:02:16.928Z,96905.11
2018-09-04T03:04:45.275Z,96910.20
2018-09-04T03:07:13.632Z,96911.98
2018-09-04T03:09:42.292Z,96910.62
2018-09-04T03:12:10.646Z,96912.53
2018-09-04T03:14:38.977Z,96911.64
2018-09-04T03:17:07.360Z,96914.87
2018-09-04T03:19:35.676Z,96911.96
2018-09-04T03:22:04.037Z,96903.78
2018-09-04T03:24:32.688Z,96909.88
2018-09-04T03:27:01.041Z,96912.33
2018-09-04T03:29:29.379Z,96911.58
2018-09-04T03:31:57.720Z,96908.97
2018-09-04T03:34:26.040Z,96909.85
2018-09-04T03:36:54.415Z,96903.91
2018-09-04T03:39:22.767Z,96903.80
2018-09-04T03:41:51.088Z,96905.56
2018-09-04T03:44:19.567Z,96905.16
2018-09-04T03:46:47.833Z,96901.52
2018-09-04T03:49:16.187Z,96901.98
2018-09-04T03:51:44.518Z,96909.66
2018-09-04T03:54:12.888Z,96910.43
2018-09-04T03:56:41.240Z,96914.92
2018-09-04T03:59:09.608Z,96910.01
2018-09-04T04:01:37.944Z,96906.11
2018-09-04T04:04:06.324Z,96908.27
2018-09-04T04:06:34.807Z,96916.38
2018-09-04T04:09:03.783Z,96915.45
2018-09-04T04:11:32.080Z,96921.88
2018-09-04T04:14:00.419Z,96927.49
2018-09-04T04:16:28.747Z,96923.31
2018-09-04T04:18:57.090Z,96925.25
2018-09-04T04:21:25.417Z,96923.63
2018-09-04T04:23:53.791Z,96926.14
2018-09-04T04:26:22.107Z,96923.30
2018-09-04T04:28:50.502Z,96921.37
2018-09-04T04:31:18.824Z,96924.36
2018-09-04T04:33:47.155Z,96928.62
2018-09-04T04:36:15.481Z,96921.16
2018-09-04T04:38:43.844Z,96924.59
2018-09-04T04:41:12.164Z,96926.06
2018-09-04T04:43:40.516Z,96931.02
2018-09-04T04:46:08.844Z,96937.73
2018-09-04T04:48:37.212Z,96934.30
2018-09-04T04:51:05.732Z,96938.38
2018-09-04T04:53:34.084Z,96941.82
2018-09-04T04:56:02.403Z,96939.12
2018-09-04T04:58:30.785Z,96941.51
2018-09-04T05:00:59.228Z,96942.46
2018-09-04T05:03:27.580Z,96948.91
2018-09-04T05:05:55.920Z,96952.87
2018-09-04T05:08:24.265Z,96954.94
2018-09-04T05:10:53.050Z,96960.59
2018-09-04T05:13:21.427Z,96962.91
2018-09-04T05:15:49.748Z,96959.78
2018-09-04T05:18:18.140Z,96960.95
2018-09-04T05:20:46.492Z,96955.92
2018-09-04T05:23:14.840Z,96961.30
2018-09-04T05:25:43.676Z,96960.22
2018-09-04T05:28:12.027Z,96972.20
2018-09-04T05:30:40.389Z,96962.63
2018-09-04T05:33:14.084Z,96961.72
2018-09-04T05:35:46.596Z,96971.97
2018-09-04T05:38:14.933Z,96967.41
2018-09-04T05:40:43.269Z,96969.85
2018-09-04T05:43:15.195Z,96978.64
2018-09-04T05:45:43.575Z,96975.87
2018-09-04T05:48:14.564Z,96974.55
2018-09-04T05:50:42.961Z,96974.12
2018-09-04T05:53:11.348Z,96976.69
2018-09-04T05:55:39.835Z,96976.83
2018-09-04T05:58:08.157Z,96975.65
2018-09-04T06:00:38.785Z,96972.69
2018-09-04T06:03:07.132Z,96978.46
2018-09-04T06:05:35.508Z,96973.49
2018-09-04T06:08:03.836Z,96968.97
2018-09-04T06:10:32.172Z,96970.48
2018-09-04T06:13:00.503Z,96978.52
2018-09-04T06:15:29.480Z,96976.59
2018-09-04T06:17:57.812Z,96983.51
2018-09-04T06:20:26.181Z,96981.80
2018-09-04T06:22:54.509Z,96979.08
2018-09-04T06:25:22.863Z,96978.24
2018-09-04T06:27:51.212Z,96981.95
2018-09-04T06:30:19.572Z,96979.77
2018-09-04T06:32:47.902Z,96972.35
2018-09-04T06:35:16.262Z,96964.52
2018-09-04T06:37:44.600Z,96970.02
2018-09-04T06:40:12.971Z,96966.29
2018-09-04T06:42:43.943Z,96969.48
2018-09-04T06:45:12.304Z,96973.84
2018-09-04T06:47:40.729Z,96978.88
2018-09-04T06:50:09.268Z,96971.84
2018-09-04T06:52:37.593Z,96974.00
2018-09-04T06:55:06.205Z,96973.52
2018-09-04T06:57:34.544Z,96969.30
2018-09-04T07:00:02.941Z,96961.13
2018-09-04T07:02:31.275Z,96959.72
2018-09-04T07:04:59.620Z,96956.92
2018-09-04T07:07:27.940Z,96964.17
2018-09-04T07:09:56.425Z,96973.10
2018-09-04T07:12:24.760Z,96976.61
2018-09-04T07:14:53.161Z,96978.80
2018-09-04T07:17:21.500Z,96965.69
2018-09-04T07:19:49.865Z,96962.23
2018-09-04T07:22:18.673Z,96954.62
2018-09-04T07:24:47.047Z,96959.89
2018-09-04T07:27:15.656Z,96952.98
2018-09-04T07:29:44.034Z,96954.05
2018-09-04T07:32:12.833Z,96955.03
2018-09-04T07:34:41.221Z,96962.56
2018-09-04T07:37:09.573Z,96962.67
2018-09-04T07:39:37.942Z,96967.14
2018-09-04T07:42:06.556Z,96965.38
2018-09-04T07:44:35.732Z,96958.06
2018-09-04T07:47:04.121Z,96963.34
2018-09-04T07:49:32.473Z,96962.95
2018-09-04T07:52:00.824Z,96965.58
2018-09-04T07:54:29.140Z,96960.00
2018-09-04T07:56:57.549Z,96967.10
2018-09-04T07:59:25.893Z,96963.25
2018-09-04T08:01:54.256Z,96962.28
2018-09-04T08:04:22.580Z,96963.02
2018-09-04T08:06:52.550Z,96962.58
2018-09-04T08:09:20.876Z,96961.58
2018-09-04T08:11:49.369Z,96966.02
2018-09-04T08:14:17.712Z,96969.20
2018-09-04T08:16:46.101Z,96967.25
2018-09-04T08:19:14.432Z,96964.24
2018-09-04T08:21:42.776Z,96965.61
2018-09-04T08:24:11.334Z,96950.67
2018-09-04T08:26:39.679Z,96957.28
2018-09-04T08:29:07.991Z,96952.58
2018-09-04T08:31:36.351Z,96953.38
2018-09-04T08:34:04.706Z,96955.42
2018-09-04T08:36:33.316Z,96953.94
2018-09-04T08:39:01.660Z,96960.00
2018-09-04T08:41:30.024Z,96956.97
2018-09-04T08:43:58.368Z,96962.67
2018-09-04T08:46:26.728Z,96959.63
2018-09-04T08:48:55.056Z,96959.11
2018-09-04T08:51:23.408Z,96964.23
2018-09-04T08:53:51.732Z,96962.02
2018-09-04T08:56:20.081Z,96959.05
2018-09-04T08:58:48.428Z,96958.87
2018-09-04T09:01:16.792Z,96964.34
2018-09-04T09:03:45.230Z,96966.61
2018-09-04T09:06:13.528Z,96962.44
2018-09-04T09:08:41.872Z,96954.76
2018-09-04T09:11:10.265Z,96948.62
2018-09-04T09:13:39.020Z,96945.66
2018-09-04T09:16:07.445Z,96945.30
2018-09-04T09:18:35.784Z,96947.06
2018-09-04T09:21:04.156Z,96943.88
2018-09-04T09:23:32.480Z,96941.70
2018-09-04T09:26:01.465Z,96942.00
2018-09-04T09:28:29.800Z,96941.77
2018-09-04T09:30:58.372Z,96948.01
2018-09-04T09:33:26.704Z,96942.75
2018-09-04T09:35:55.052Z,96942.36
2018-09-04T09:38:23.365Z,96934.22
2018-09-04T09:40:51.791Z,96931.09
2018-09-04T09:43:20.117Z,96934.81
2018-09-04T09:45:48.469Z,96931.86
2018-09-04T09:48:16.871Z,96933.56
2018-09-04T09:50:45.453Z,96928.47
2018-09-04T09:53:13.826Z,96929.77
2018-09-04T09:55:45.588Z,96920.48
2018-09-04T09:58:13.911Z,96923.14
2018-09-04T10:00:47.579Z,96918.83
2018-09-04T10:03:21.384Z,96919.19
2018-09-04T10:05:49.725Z,96910.39
2018-09-04T10:08:18.129Z,96912.23
2018-09-04T10:10:46.665Z,96912.70
2018-09-04T10:13:15.024Z,96920.09
2018-09-04T10:15:43.432Z,96916.65
2018-09-04T10:18:11.785Z,96911.20
2018-09-04T10:20:40.824Z,96910.34
2018-09-04T10:23:09.204Z,96908.39
2018-09-04T10:25:37.527Z,96904.17
2018-09-04T10:28:05.920Z,96906.87
2018-09-04T10:30:34.611Z,96910.73
2018-09-04T10:33:04.024Z,96905.43
2018-09-04T10:35:39.131Z,96899.75
2018-09-04T10:38:13.005Z,96902.12
2018-09-04T10:40:47.234Z,96908.00
2018-09-04T10:43:17.690Z,96896.55
2018-09-04T10:45:56.024Z,96902.69
2018-09-04T10:48:29.250Z,96904.89
2018-09-04T10:51:04.112Z,96901.86
2018-09-04T10:53:38.115Z,96901.45
2018-09-04T10:56:08.905Z,96904.36
2018-09-04T10:58:42.937Z,96901.17
2018-09-04T11:01:12.540Z,96890.95
2018-09-04T11:03:42.932Z,96890.95
2018-09-04T11:06:15.910Z,96891.70
2018-09-04T11:08:46.477Z,96900.65
2018-09-04T11:11:16.521Z,96895.20
2018-09-04T11:13:46.718Z,96899.99
2018-09-04T11:16:16.687Z,96891.87
2018-09-04T11:18:46.449Z,96887.86
2018-09-04T11:21:19.491Z,96883.00
2018-09-04T11:23:50.432Z,96887.17
2018-09-04T11:26:20.702Z,96885.98
2018-09-04T11:28:53.658Z,96895.49
2018-09-04T11:31:32.842Z,96891.45
2018-09-04T11:34:04.544Z,96889.69
2018-09-04T11:36:34.414Z,96884.11
2018-09-04T11:39:04.749Z,96886.92
2018-09-04T11:41:38.656Z,96890.77
2018-09-04T11:44:17.794Z,96894.22
2018-09-04T11:46:48.689Z,96878.29
2018-09-04T11:49:21.936Z,96877.63
2018-09-04T11:51:51.609Z,96884.02
2018-09-04T11:54:21.665Z,96879.40
2018-09-04T11:56:52.167Z,96874.64
2018-09-04T11:59:22.306Z,96872.98
2018-09-04T12:01:57.110Z,96880.16
2018-09-04T12:04:27.422Z,96881.39
2018-09-04T12:06:59.348Z,96879.42
2018-09-04T12:09:29.246Z,96885.54
2018-09-04T12:11:59.255Z,96883.08
2018-09-04T12:14:33.895Z,96880.90
2018-09-04T12:17:06.151Z,96880.97
2018-09-04T12:22:29.395Z,96883.50
2018-09-04T12:25:00.753Z,96890.47
2018-09-04T12:27:30.822Z,96893.95
2018-09-04T12:30:00.362Z,96889.13
2018-09-04T12:32:28.707Z,96885.56
2018-09-04T12:34:58.204Z,96886.97
2018-09-04T12:37:26.589Z,96885.33
2018-09-04T12:39:58.384Z,96884.58
2018-09-04T12:42:27.813Z,96894.16
2018-09-04T12:44:58.284Z,96884.40
2018-09-04T12:47:26.637Z,96883.00
2018-09-04T12:49:55.164Z,96884.72
2018-09-04T12:52:23.913Z,96886.10
2018-09-04T12:54:52.279Z,96886.48
2018-09-04T12:57:21.023Z,96879.21
2018-09-04T12:59:49.439Z,96877.92
2018-09-04T13:02:17.756Z,96877.80
2018-09-04T13:04:46.800Z,96873.66
2018-09-04T13:07:15.142Z,96871.94
2018-09-04T13:09:43.616Z,96879.45
2018-09-04T13:12:11.951Z,96872.67
2018-09-04T13:14:40.770Z,96873.73
2018-09-04T13:17:08.992Z,96876.11
2018-09-04T13:19:38.145Z,96874.34
2018-09-04T13:22:06.532Z,96869.48
2018-09-04T13:24:35.064Z,96867.77
2018-09-04T13:27:04.482Z,96877.75
2018-09-04T13:29:34.061Z,96880.66
2018-09-04T13:32:02.452Z,96865.37
2018-09-04T13:34:32.166Z,96865.34
2018-09-04T13:37:00.760Z,96870.16
2018-09-04T13:39:30.858Z,96872.12
2018-09-04T13:42:01.604Z,96870.69
2018-09-04T13:44:36.115Z,96862.73
2018-09-04T13:47:09.536Z,96862.78
2018-09-04T13:49:40.279Z,96859.31
2018-09-04T13:52:13.614Z,96847.20
2018-09-04T13:54:44.634Z,96847.45
2018-09-04T13:57:14.380Z,96861.77
2018-09-04T13:59:45.642Z,96862.20
2018-09-04T14:02:15.494Z,96864.12
2018-09-04T14:04:50.811Z,96871.67
2018-09-04T14:07:30.832Z,96866.52
2018-09-04T14:10:00.913Z,96868.45
2018-09-04T14:12:31.167Z,96861.22
2018-09-04T14:15:01.754Z,96865.40
2018-09-04T14:17:31.086Z,96873.40
2018-09-04T14:20:03.617Z,96870.47
2018-09-04T14:22:39.191Z,96870.72
2018-09-04T14:25:11.438Z,96874.41
2018-09-04T14:27:44.712Z,96870.89
2018-09-04T14:30:16.145Z,96877.20
2018-09-04T14:32:45.153Z,96876.14
2018-09-04T14:35:18.695Z,96874.90
2018-09-04T14:37:48.178Z,96880.91
2018-09-04T14:40:18.317Z,96873.73
2018-09-04T14:42:49.029Z,96870.77
2018-09-04T14:45:19.120Z,96880.03
2018-09-04T14:47:52.623Z,96876.84
2018-09-04T14:50:22.664Z,96872.98
2018-09-04T14:52:55.740Z,96875.23
2018-09-04T14:55:26.429Z,96873.55
2018-09-04T14:57:56.665Z,96872.20
2018-09-04T15:00:34.990Z,96871.42
2018-09-04T15:03:07.085Z,96872.09
2018-09-04T15:05:37.713Z,96877.97
2018-09-04T15:08:10.531Z,96875.52
2018-09-04T15:10:40.256Z,96875.16
2018-09-04T15:13:09.800Z,96873.86
2018-09-04T15:15:41.800Z,96864.51
2018-09-04T15:18:12.204Z,96857.86
2018-09-04T15:20:41.901Z,96858.30
2018-09-04T15:23:12.892Z,96857.16
2018-09-04T15:25:53.781Z,96857.38
2018-09-04T15:28:25.196Z,96856.91
2018-09-04T15:31:00.525Z,96862.88
2018-09-04T15:33:30.252Z,96860.12
2018-09-04T15:36:01.003Z,96865.98
2018-09-04T15:38:30.685Z,96860.37
2018-09-04T15:41:04.261Z,96862.81
2018-09-04T15:43:37.983Z,96867.39
2018-09-04T15:46:11.688Z,96868.09
2018-09-04T15:48:41.770Z,96861.02
2018-09-04T15:51:15.532Z,96863.54
2018-09-04T15:53:48.483Z,96868.20
2018-09-04T15:56:21.143Z,96870.72
2018-09-04T15:58:56.934Z,96868.72
2018-09-04T16:01:27.715Z,96865.76
2018-09-04T16:03:58.008Z,96870.67
2018-09-04T16:06:27.834Z,96870.69
2018-09-04T16:09:05.300Z,96866.27
2018-09-04T16:11:39.294Z,96873.27
2018-09-04T16:14:12.061Z,96873.08
2018-09-04T16:16:44.637Z,96875.42
2018-09-04T16:19:19.437Z,96869.59
2018-09-04T16:21:49.926Z,96873.55
2018-09-04T16:24:23.205Z,96872.08
2018-09-04T16:26:58.005Z,96869.66
2018-09-04T16:29:27.960Z,96873.55
2018-09-04T16:31:57.598Z,96866.00
2018-09-04T16:34:27.897Z,96867.80
2018-09-04T16:37:00.222Z,96871.42
2018-09-04T16:39:30.935Z,96875.32
2018-09-04T16:42:04.164Z,96872.59
2018-09-04T16:44:37.925Z,96868.73
2018-09-04T16:47:13.618Z,96873.08
2018-09-04T16:49:43.893Z,96879.60
2018-09-04T16:52:18.222Z,96873.36
2018-09-04T16:54:50.439Z,96877.61
2018-09-04T16:57:21.192Z,96883.69
2018-09-04T16:59:55.643Z,96879.93
2018-09-04T17:02:25.806Z,96882.30
2018-09-04T17:05:02.674Z,96890.84
2018-09-04T17:07:32.783Z,96887.64
2018-09-04T17:10:04.130Z,96889.42
2018-09-04T17:12:34.961Z,96893.23
2018-09-04T17:15:05.025Z,96887.43
2018-09-04T17:17:34.898Z,96893.00
2018-09-04T17:20:06.180Z,96889.67
2018-09-04T17:22:39.744Z,96902.77
2018-09-04T17:25:09.686Z,96908.26
2018-09-04T17:27:39.429Z,96911.28
2018-09-04T17:30:12.052Z,96915.00
2018-09-04T17:32:41.437Z,96912.29
2018-09-04T17:35:11.049Z,96917.38
2018-09-04T17:37:41.858Z,96921.98
2018-09-04T17:40:11.638Z,96924.70
2018-09-04T17:42:43.204Z,96921.30
2018-09-04T17:45:13.687Z,96917.66
2018-09-04T17:47:51.164Z,96921.63
2018-09-04T17:50:21.229Z,96918.69
2018-09-04T17:52:51.213Z,96918.91
2018-09-04T17:55:26.314Z,96917.42
2018-09-04T17:58:03.315Z,96920.57
2018-09-04T18:00:36.602Z,96919.52
2018-09-04T18:03:08.290Z,96922.81
2018-09-04T18:05:39.541Z,96920.91
2018-09-04T18:08:12.047Z,96928.89
2018-09-04T18:10:42.435Z,96924.77
2018-09-04T18:13:14.431Z,96935.00
2018-09-04T18:15:48.327Z,96943.30
2018-09-04T18:18:18.647Z,96937.02
2018-09-04T18:20:48.780Z,96945.17
2018-09-04T18:23:19.470Z,96942.72
2018-09-04T18:25:52.853Z,96948.67
2018-09-04T18:28:28.455Z,96950.64
2018-09-04T18:30:58.937Z,96950.80
2018-09-04T18:33:29.148Z,96950.09
2018-09-04T18:36:01.315Z,96962.15
2018-09-04T18:38:34.104Z,96959.33
2018-09-04T18:41:07.304Z,96965.75
2018-09-04T18:43:38.441Z,96964.70
2018-09-04T18:46:11.579Z,96965.97
2018-09-04T18:48:45.692Z,96979.14
2018-09-04T18:51:17.578Z,96975.09
2018-09-04T18:53:49.171Z,96977.44
2018-09-04T18:56:23.718Z,96974.98
2018-09-04T18:58:54.001Z,96985.78
2018-09-04T19:01:25.243Z,96987.73
2018-09-04T19:03:56.100Z,96991.69
2018-09-04T19:06:26.381Z,96991.11
2018-09-04T19:08:56.403Z,96988.75
2018-09-04T19:11:29.853Z,96988.73
2018-09-04T19:14:02.379Z,96994.42
2018-09-04T19:16:36.684Z,96986.44
2018-09-04T19:19:09.226Z,96993.69
2018-09-04T19:21:39.329Z,96991.89
2018-09-04T19:24:14.642Z,96994.26
2018-09-04T19:26:49.168Z,96994.39
2018-09-04T19:29:24.406Z,96999.31
2018-09-04T19:31:57.492Z,96996.58
2018-09-04T19:34:28.108Z,96999.80
2018-09-04T19:36:57.969Z,97000.45
2018-09-04T19:39:28.274Z,97001.59
2018-09-04T19:42:02.164Z,97005.02
2018-09-04T19:44:36.592Z,97002.23
2018-09-04T19:47:09.791Z,97004.14
2018-09-04T19:49:40.101Z,97007.23
2018-09-04T19:52:10.148Z,97007.36
2018-09-04T19:54:40.538Z,96996.48
2018-09-04T19:57:10.472Z,97000.47
2018-09-04T19:59:40.093Z,97002.25
2018-09-04T20:02:12.167Z,97001.52
2018-09-04T20:04:42.804Z,96996.86
2018-09-04T20:07:19.751Z,97007.34
2018-09-04T20:09:49.300Z,97007.93
2018-09-04T20:12:18.899Z,97012.80
2018-09-04T20:14:49.497Z,97019.98
2018-09-04T20:17:22.751Z,97020.08
2018-09-04T20:19:52.464Z,97017.27
2018-09-04T20:22:23.169Z,97017.83
2018-09-04T20:24:54.684Z,97020.31
2018-09-04T20:27:27.858Z,97020.31
2018-09-04T20:30:02.517Z,97017.34
2018-09-04T20:32:35.762Z,97022.66
2018-09-04T20:35:07.602Z,97023.64
2018-09-04T20:37:41.002Z,97019.79
2018-09-04T20:40:14.309Z,97017.34
2018-09-04T20:42:45.222Z,97013.34
2018-09-04T20:45:14.411Z,97025.39
2018-09-04T20:47:42.884Z,97021.13
2018-09-04T20:50:11.236Z,97025.06
2018-09-04T20:52:39.588Z,97017.67
2018-09-04T20:55:07.976Z,97024.09
2018-09-04T20:57:38.773Z,97015.74
2018-09-04T21:00:20.818Z,97015.33
2018-09-04T21:03:00.569Z,97023.23
2018-09-04T21:05:40.948Z,97022.95
2018-09-04T21:08:24.064Z,97023.91
2018-09-04T21:10:53.132Z,97025.69
2018-09-04T21:13:21.535Z,97019.27
2018-09-04T21:15:49.901Z,97023.27
2018-09-04T21:18:18.288Z,97024.69
2018-09-04T21:20:46.647Z,97020.31
2018-09-04T21:23:15.544Z,97013.90
2018-09-04T21:25:43.924Z,97020.30
2018-09-04T21:28:12.276Z,97017.17
2018-09-04T21:30:40.641Z,97015.21
2018-09-04T21:33:09.094Z,97014.74
2018-09-04T21:35:37.444Z,97017.06
2018-09-04T21:38:05.830Z,97009.61
2018-09-04T21:40:34.192Z,97018.53
2018-09-04T21:43:02.519Z,97009.61
2018-09-04T21:45:30.894Z,97011.88
2018-09-04T21:47:59.212Z,97013.13
2018-09-04T21:50:27.563Z,97017.11
2018-09-04T21:52:55.896Z,97017.01
2018-09-04T21:55:24.248Z,97015.31
2018-09-04T21:57:52.567Z,97017.00
2018-09-04T22:00:25.520Z,97014.28
2018-09-04T22:02:54.412Z,97013.47
2018-09-04T22:05:24.056Z,97016.01
2018-09-04T22:07:53.257Z,97009.66
2018-09-04T22:10:21.650Z,97007.43
2018-09-04T22:12:50.017Z,97008.69
2018-09-04T22:15:18.396Z,97012.59
2018-09-04T22:17:46.784Z,97008.37
2018-09-04T22:20:15.131Z,97013.30
2018-09-04T22:22:43.480Z,97010.19
2018-09-04T22:25:11.853Z,97008.05
2018-09-04T22:27:40.205Z,97011.19
2018-09-04T22:30:08.617Z,97006.45
2018-09-04T22:32:36.957Z,97005.55
2018-09-04T22:35:05.448Z,97005.57
2018-09-04T22:37:33.785Z,97009.45
2018-09-04T22:40:02.133Z,97006.13
2018-09-04T22:42:30.652Z,97007.63
2018-09-04T22:44:59.020Z,97010.09
2018-09-04T22:47:27.360Z,97010.75
2018-09-04T22:50:00.927Z,97016.84
2018-09-04T22:52:31.448Z,97013.25
2018-09-04T22:55:02.632Z,97011.95
2018-09-04T22:57:31.456Z,97010.59
2018-09-04T22:59:59.836Z,97012.69
2018-09-04T23:02:28.261Z,97011.95
2018-09-04T23:04:57.061Z,97004.08
2018-09-04T23:07:25.384Z,97009.10
2018-09-04T23:09:53.757Z,97014.16
2018-09-04T23:12:22.144Z,97017.58
2018-09-04T23:14:50.512Z,97009.49
2018-09-04T23:17:18.876Z,97011.63
2018-09-04T23:19:47.285Z,97017.86
2018-09-04T23:22:15.604Z,97015.63
2018-09-04T23:24:43.936Z,97012.18
2018-09-04T23:27:12.288Z,97012.80
2018-09-04T23:29:40.624Z,97005.83
2018-09-04T23:32:08.980Z,97009.41
2018-09-04T23:34:37.833Z,97012.82
2018-09-04T23:37:06.325Z,97011.16
2018-09-04T23:39:34.668Z,97008.31
2018-09-04T23:42:03.016Z,97012.09
2018-09-04T23:44:31.352Z,97011.45
2018-09-04T23:46:59.754Z,97011.70
2018-09-04T23:49:28.607Z,97009.41
2018-09-04T23:51:56.986Z,97008.28
2018-09-04T23:54:25.527Z,97006.02
2018-09-04T23:56:53.920Z,97003.70
2018-09-04T23:59:22.573Z,97001.60
